Time;durP1;ratioP1;P1;durP2;ratioP2;P2;SDS_P1;SDS_P2;PMS_P1;PMS_P2;Temp;Humidity;BMP_temperature;BMP_pressure;BME280_temperature;BME280_humidity;BME280_pressure;Samples;Min_cycle;Max_cycle;Signal;HPM_P1;HPM_P2
2023/07/02 00:00:59;;;;;;;4.77;3.20;;;17.00;99.90;;;;;;5083919;28;20283;-77
2023/07/02 00:03:24;;;;;;;7.03;3.37;;;17.00;99.90;;;;;;5093927;28;20429;-73
2023/07/02 00:05:54;;;;;;;11.43;9.03;;;17.00;99.90;;;;;;5125042;28;20454;-76
2023/07/02 00:08:20;;;;;;;6.23;4.93;;;17.00;99.90;;;;;;5133207;28;20266;-76
2023/07/02 00:10:46;;;;;;;6.17;4.70;;;17.00;99.90;;;;;;5116668;28;20897;-75
2023/07/02 00:13:11;;;;;;;4.50;3.50;;;17.00;99.90;;;;;;5099791;28;20419;-75
2023/07/02 00:15:37;;;;;;;7.60;4.87;;;17.00;99.90;;;;;;5115512;28;20191;-77
2023/07/02 00:18:02;;;;;;;4.10;3.63;;;17.00;99.90;;;;;;5076129;28;20231;-75
2023/07/02 00:20:30;;;;;;;5.73;3.70;;;17.00;99.90;;;;;;5075754;28;20193;-74
2023/07/02 00:22:56;;;;;;;4.87;2.90;;;17.00;99.90;;;;;;5105924;28;20184;-77
2023/07/02 00:25:22;;;;;;;4.00;2.63;;;17.00;99.90;;;;;;5114506;28;20433;-77
2023/07/02 00:27:47;;;;;;;4.83;3.70;;;17.00;99.90;;;;;;5130504;28;20504;-75
2023/07/02 00:30:13;;;;;;;5.60;3.00;;;16.90;99.90;;;;;;5098902;28;20464;-76
2023/07/02 00:32:39;;;;;;;3.70;2.47;;;16.90;99.90;;;;;;5091854;28;20186;-75
2023/07/02 00:35:05;;;;;;;5.33;4.00;;;16.90;99.90;;;;;;5073892;28;20409;-74
2023/07/02 00:37:30;;;;;;;5.27;3.17;;;16.90;99.90;;;;;;5109549;28;20315;-74
2023/07/02 00:39:56;;;;;;;3.67;3.00;;;16.90;99.90;;;;;;5129389;28;20277;-76
2023/07/02 00:42:23;;;;;;;5.43;2.90;;;16.80;99.90;;;;;;5109380;28;20197;-75
2023/07/02 00:44:49;;;;;;;3.20;2.77;;;16.80;99.90;;;;;;5120679;28;20449;-74
2023/07/02 00:47:16;;;;;;;5.70;3.33;;;16.80;99.90;;;;;;5088800;28;20816;-75
2023/07/02 00:49:42;;;;;;;4.93;3.50;;;16.70;99.90;;;;;;5083229;28;20602;-75
2023/07/02 00:52:07;;;;;;;3.60;3.03;;;16.70;99.90;;;;;;5095228;28;20503;-74
2023/07/02 00:54:33;;;;;;;5.77;3.33;;;16.70;99.90;;;;;;5127004;28;20243;-75
2023/07/02 00:57:03;;;;;;;6.97;3.93;;;16.60;99.90;;;;;;5126180;28;20199;-73
2023/07/02 00:59:30;;;;;;;4.90;3.70;;;16.60;99.90;;;;;;5092102;28;20434;-76
2023/07/02 01:01:56;;;;;;;5.50;3.67;;;16.60;99.90;;;;;;5105594;28;20423;-74
2023/07/02 01:04:27;;;;;;;7.03;4.07;;;16.60;99.90;;;;;;5088205;28;20466;-75
2023/07/02 01:07:00;;;;;;;6.27;4.00;;;16.60;99.90;;;;;;5087828;28;20849;-73
2023/07/02 01:09:26;;;;;;;4.20;3.20;;;16.60;99.90;;;;;;5107379;28;20462;-73
2023/07/02 01:12:01;;;;;;;4.10;2.87;;;16.60;99.90;;;;;;5105342;28;20462;-76
2023/07/02 01:14:41;;;;;;;7.53;4.47;;;16.60;99.90;;;;;;5105414;28;20436;-75
2023/07/02 01:17:08;;;;;;;9.83;5.17;;;16.60;99.90;;;;;;5089682;28;20418;-76
2023/07/02 01:19:44;;;;;;;13.00;6.07;;;16.60;99.90;;;;;;5105252;28;20893;-75
2023/07/02 01:22:11;;;;;;;11.70;4.97;;;16.60;99.90;;;;;;5104141;28;20674;-72
2023/07/02 01:24:39;;;;;;;9.30;6.40;;;16.60;99.90;;;;;;5086819;28;20443;-73
2023/07/02 01:27:05;;;;;;;7.50;5.47;;;16.60;99.90;;;;;;5105317;28;20414;-73
2023/07/02 01:29:31;;;;;;;8.10;5.60;;;16.60;99.90;;;;;;5089119;28;20466;-74
2023/07/02 01:31:57;;;;;;;13.03;5.53;;;16.60;99.90;;;;;;5053268;28;20190;-74
2023/07/02 01:34:22;;;;;;;9.40;5.17;;;16.60;99.90;;;;;;5123790;28;20410;-74
2023/07/02 01:36:48;;;;;;;10.57;6.30;;;16.60;99.90;;;;;;5105608;28;20726;-75
2023/07/02 01:39:14;;;;;;;10.67;6.40;;;16.60;99.90;;;;;;5124736;28;20217;-73
2023/07/02 01:41:49;;;;;;;7.90;5.90;;;16.60;99.90;;;;;;5126992;28;20220;-73
2023/07/02 01:44:15;;;;;;;11.20;6.93;;;16.50;99.90;;;;;;5109753;28;20184;-75
2023/07/02 01:46:41;;;;;;;8.47;5.33;;;16.50;99.90;;;;;;5121011;28;20458;-73
2023/07/02 01:49:07;;;;;;;9.60;7.27;;;16.50;99.90;;;;;;5130308;28;20257;-73
2023/07/02 01:51:33;;;;;;;11.23;7.47;;;16.50;99.90;;;;;;5111740;28;20182;-76
2023/07/02 01:53:59;;;;;;;13.13;6.73;;;16.50;99.90;;;;;;5104976;28;20242;-73
2023/07/02 01:56:26;;;;;;;10.17;6.57;;;16.50;99.90;;;;;;5073227;28;20846;-73
2023/07/02 01:58:52;;;;;;;9.17;6.10;;;16.50;99.90;;;;;;5085640;28;20411;-74
2023/07/02 02:01:18;;;;;;;10.00;6.83;;;16.40;99.90;;;;;;5071296;28;20420;-74
2023/07/02 02:03:44;;;;;;;9.03;6.70;;;16.50;99.90;;;;;;5089258;28;20746;-73
2023/07/02 02:06:09;;;;;;;14.90;8.40;;;16.40;99.90;;;;;;5070170;28;20174;-74
2023/07/02 02:08:35;;;;;;;11.17;8.27;;;16.40;99.90;;;;;;5099564;28;20196;-75
2023/07/02 02:11:02;;;;;;;13.00;7.73;;;16.40;99.90;;;;;;5123068;28;20254;-74
2023/07/02 02:13:27;;;;;;;16.17;9.60;;;16.40;99.90;;;;;;5107205;28;20188;-72
2023/07/02 02:15:54;;;;;;;16.20;9.57;;;16.40;99.90;;;;;;5111186;28;20425;-74
2023/07/02 02:18:20;;;;;;;12.67;7.77;;;16.40;99.90;;;;;;5124989;28;20199;-74
2023/07/02 02:20:46;;;;;;;13.03;8.60;;;16.30;99.90;;;;;;5110644;28;20439;-73
2023/07/02 02:23:11;;;;;;;15.20;9.07;;;16.30;99.90;;;;;;5107552;28;20198;-73
2023/07/02 02:25:37;;;;;;;14.20;9.17;;;16.30;99.90;;;;;;5122190;28;20184;-74
2023/07/02 02:28:03;;;;;;;16.57;10.17;;;16.30;99.90;;;;;;5108769;28;20204;-74
2023/07/02 02:30:29;;;;;;;11.50;8.53;;;16.30;99.90;;;;;;5074210;28;20224;-73
2023/07/02 02:32:55;;;;;;;11.90;8.60;;;16.30;99.90;;;;;;5082000;28;20411;-72
2023/07/02 02:35:22;;;;;;;16.63;10.50;;;16.30;99.90;;;;;;5067889;28;20414;-74
2023/07/02 02:37:49;;;;;;;14.20;10.70;;;16.30;99.90;;;;;;5100670;28;20462;-75
2023/07/02 02:40:15;;;;;;;17.37;9.70;;;16.30;99.90;;;;;;5091064;28;20901;-74
2023/07/02 02:42:40;;;;;;;15.70;10.20;;;16.30;99.90;;;;;;5084640;28;20480;-74
2023/07/02 02:45:07;;;;;;;15.67;10.20;;;16.30;99.90;;;;;;5080931;28;20224;-73
2023/07/02 02:47:33;;;;;;;18.27;10.10;;;16.30;99.90;;;;;;5075754;28;20422;-75
2023/07/02 02:49:59;;;;;;;15.40;9.83;;;16.20;99.90;;;;;;5071309;28;20754;-73
2023/07/02 02:52:25;;;;;;;17.17;11.80;;;16.20;99.90;;;;;;5109068;28;20317;-73
2023/07/02 02:54:52;;;;;;;13.53;10.57;;;16.10;99.90;;;;;;5110225;28;20189;-73
2023/07/02 02:57:18;;;;;;;12.77;10.03;;;16.10;99.90;;;;;;5083490;28;20192;-73
2023/07/02 02:59:44;;;;;;;15.20;8.93;;;16.10;99.90;;;;;;5101590;28;20439;-73
2023/07/02 03:02:09;;;;;;;15.73;10.03;;;16.10;99.90;;;;;;5063658;28;20211;-73
2023/07/02 03:04:39;;;;;;;17.27;10.80;;;16.00;99.90;;;;;;5063781;28;20247;-73
2023/07/02 03:07:09;;;;;;;14.40;9.03;;;16.00;99.90;;;;;;5102932;28;20175;-73
2023/07/02 03:09:35;;;;;;;17.77;11.27;;;16.00;99.90;;;;;;5107643;28;20543;-72
2023/07/02 03:12:00;;;;;;;16.90;10.53;;;15.90;99.90;;;;;;5121938;28;20556;-74
2023/07/02 03:14:26;;;;;;;17.93;10.10;;;15.90;99.90;;;;;;5099832;28;20534;-73
2023/07/02 03:16:52;;;;;;;14.83;9.30;;;15.90;99.90;;;;;;5066039;28;20188;-74
2023/07/02 03:19:17;;;;;;;15.77;9.47;;;15.80;99.90;;;;;;5111546;28;20238;-73
2023/07/02 03:21:46;;;;;;;19.97;11.70;;;15.80;99.90;;;;;;5105066;28;20196;-73
2023/07/02 03:24:13;;;;;;;14.07;10.83;;;15.80;99.90;;;;;;5101333;28;20188;-74
2023/07/02 03:26:42;;;;;;;17.10;10.90;;;15.70;99.90;;;;;;5102910;28;20444;-74
2023/07/02 03:29:08;;;;;;;20.17;12.23;;;15.60;99.90;;;;;;5122304;28;20465;-72
2023/07/02 03:31:34;;;;;;;17.90;10.47;;;15.60;99.90;;;;;;5101308;28;20555;-75
2023/07/02 03:34:09;;;;;;;20.60;10.90;;;15.60;99.90;;;;;;5101263;28;20208;-76
2023/07/02 03:36:36;;;;;;;27.00;12.77;;;15.60;99.90;;;;;;5087039;28;20184;-73
2023/07/02 03:39:03;;;;;;;16.53;11.40;;;15.60;99.90;;;;;;5104349;28;20494;-73
2023/07/02 03:41:28;;;;;;;17.10;11.30;;;15.60;99.90;;;;;;5124125;28;20398;-74
2023/07/02 03:43:54;;;;;;;16.83;11.17;;;15.60;99.90;;;;;;5124506;28;20845;-76
2023/07/02 03:46:20;;;;;;;17.73;11.97;;;15.60;99.90;;;;;;5109219;28;20189;-73
2023/07/02 03:48:46;;;;;;;15.67;11.30;;;15.60;99.90;;;;;;5123348;28;20203;-73
2023/07/02 03:51:14;;;;;;;22.33;14.43;;;15.70;99.90;;;;;;5120726;28;20405;-73
2023/07/02 03:53:41;;;;;;;20.90;12.40;;;15.80;99.90;;;;;;5119317;28;20188;-72
2023/07/02 03:56:06;;;;;;;18.57;11.20;;;15.80;99.90;;;;;;5105004;28;20423;-72
2023/07/02 03:58:33;;;;;;;20.63;12.50;;;15.90;99.90;;;;;;5100295;28;20536;-72
2023/07/02 04:00:58;;;;;;;16.83;11.80;;;15.90;99.90;;;;;;5103315;28;20265;-72
2023/07/02 04:03:24;;;;;;;18.00;11.43;;;16.00;99.90;;;;;;5118471;28;20723;-71
2023/07/02 04:05:50;;;;;;;17.43;12.30;;;16.00;99.90;;;;;;5113905;28;20465;-72
2023/07/02 04:08:16;;;;;;;21.67;12.07;;;16.10;99.90;;;;;;5113464;28;20242;-72
2023/07/02 04:10:41;;;;;;;23.73;13.70;;;16.10;99.90;;;;;;5099153;28;20468;-74
2023/07/02 04:13:07;;;;;;;18.03;13.00;;;16.10;99.90;;;;;;5119494;28;20267;-72
2023/07/02 04:15:33;;;;;;;18.80;12.93;;;16.20;99.90;;;;;;5100643;28;20254;-73
2023/07/02 04:17:59;;;;;;;23.30;13.10;;;16.20;99.90;;;;;;5119147;28;20237;-72
2023/07/02 04:20:25;;;;;;;23.10;13.93;;;16.30;99.90;;;;;;5103491;28;20422;-72
2023/07/02 04:22:51;;;;;;;29.17;15.73;;;16.30;99.90;;;;;;5111922;28;20188;-72
2023/07/02 04:25:17;;;;;;;26.27;15.77;;;16.30;99.90;;;;;;5103417;28;20410;-72
2023/07/02 04:27:43;;;;;;;28.57;15.70;;;16.30;99.90;;;;;;5098220;28;20394;-73
2023/07/02 04:30:12;;;;;;;22.97;14.57;;;16.40;99.90;;;;;;5090774;28;20222;-71
2023/07/02 04:32:42;;;;;;;21.10;14.03;;;16.40;99.90;;;;;;5107206;28;20410;-73
2023/07/02 04:35:08;;;;;;;21.67;14.53;;;16.40;99.90;;;;;;5118911;28;20479;-73
2023/07/02 04:37:35;;;;;;;20.77;14.07;;;16.50;99.90;;;;;;5115287;28;20581;-73
2023/07/02 04:40:01;;;;;;;27.23;16.70;;;16.60;99.90;;;;;;5118380;28;20481;-72
2023/07/02 04:42:27;;;;;;;22.77;14.97;;;16.60;99.90;;;;;;5117625;28;20464;-73
2023/07/02 04:44:56;;;;;;;26.27;14.10;;;16.60;99.90;;;;;;5093517;28;20679;-72
2023/07/02 04:47:22;;;;;;;24.67;15.23;;;16.70;99.90;;;;;;5082359;28;20307;-72
2023/07/02 04:49:47;;;;;;;21.37;13.60;;;16.70;99.90;;;;;;5104501;28;20905;-73
2023/07/02 04:52:13;;;;;;;23.00;14.30;;;16.70;99.90;;;;;;5109541;28;20175;-72
2023/07/02 04:54:39;;;;;;;22.07;14.20;;;16.80;99.90;;;;;;5112148;28;20497;-72
2023/07/02 04:57:04;;;;;;;23.50;16.00;;;16.80;99.90;;;;;;5112218;28;20183;-71
2023/07/02 04:59:30;;;;;;;24.40;15.27;;;16.90;99.90;;;;;;5099099;28;20624;-72
2023/07/02 05:01:55;;;;;;;17.27;12.70;;;16.90;99.90;;;;;;5078787;28;20462;-72
2023/07/02 05:04:21;;;;;;;22.80;15.27;;;17.00;99.90;;;;;;5078536;28;20227;-73
2023/07/02 05:06:47;;;;;;;23.13;13.70;;;17.10;99.90;;;;;;5110887;28;20193;-73
2023/07/02 05:09:12;;;;;;;24.20;15.67;;;17.20;99.90;;;;;;5112577;28;20290;-73
2023/07/02 05:11:38;;;;;;;23.40;15.60;;;17.20;99.90;;;;;;5115571;28;20194;-73
2023/07/02 05:14:03;;;;;;;30.07;19.40;;;17.20;99.90;;;;;;5112065;28;20175;-73
2023/07/02 05:16:29;;;;;;;26.80;17.60;;;17.30;99.90;;;;;;5097996;28;20604;-73
2023/07/02 05:18:54;;;;;;;31.33;18.93;;;17.30;99.90;;;;;;5104771;28;20489;-72
2023/07/02 05:21:20;;;;;;;25.00;17.43;;;17.40;99.90;;;;;;5117981;28;20180;-72
2023/07/02 05:23:47;;;;;;;34.70;20.40;;;17.30;99.90;;;;;;5083703;28;20957;-73
2023/07/02 05:26:12;;;;;;;24.47;16.03;;;17.30;99.90;;;;;;5079361;28;20437;-72
2023/07/02 05:28:38;;;;;;;31.03;19.20;;;17.40;99.90;;;;;;5096678;28;20415;-72
2023/07/02 05:31:03;;;;;;;26.67;16.40;;;17.40;99.90;;;;;;5091391;28;20625;-73
2023/07/02 05:33:32;;;;;;;26.53;17.87;;;17.50;99.90;;;;;;5097988;28;20185;-71
2023/07/02 05:35:57;;;;;;;25.13;17.50;;;17.40;99.90;;;;;;5099376;28;20646;-73
2023/07/02 05:38:24;;;;;;;22.30;16.40;;;17.50;99.90;;;;;;5117672;28;20531;-75
2023/07/02 05:40:49;;;;;;;28.07;18.33;;;17.60;99.90;;;;;;5106219;28;20212;-71
2023/07/02 05:43:15;;;;;;;26.13;19.03;;;17.70;99.90;;;;;;5098099;28;20412;-71
2023/07/02 05:45:40;;;;;;;30.73;19.03;;;17.90;99.90;;;;;;5094064;28;20192;-72
2023/07/02 05:48:06;;;;;;;30.13;19.60;;;18.10;99.90;;;;;;5077637;28;20193;-72
2023/07/02 05:50:31;;;;;;;33.10;20.37;;;18.40;99.90;;;;;;5109202;28;20210;-72
2023/07/02 05:52:57;;;;;;;28.20;19.17;;;18.50;99.90;;;;;;5117943;28;20665;-73
2023/07/02 05:55:23;;;;;;;28.30;19.83;;;18.80;99.90;;;;;;5117211;28;20562;-72
2023/07/02 05:57:49;;;;;;;28.33;18.33;;;19.00;99.90;;;;;;5116919;28;20216;-75
2023/07/02 06:00:15;;;;;;;23.07;17.77;;;19.10;97.80;;;;;;5101413;28;20478;-72
2023/07/02 06:02:40;;;;;;;28.93;19.50;;;19.10;98.30;;;;;;5117833;28;20221;-73
2023/07/02 06:05:06;;;;;;;32.97;20.60;;;19.10;96.70;;;;;;5117846;28;20458;-73
2023/07/02 06:07:32;;;;;;;29.80;20.50;;;19.10;96.80;;;;;;5103619;28;20534;-73
2023/07/02 06:09:57;;;;;;;27.67;17.80;;;19.40;95.50;;;;;;5100100;28;20449;-73
2023/07/02 06:12:23;;;;;;;31.70;20.70;;;19.50;94.80;;;;;;5111732;28;20275;-72
2023/07/02 06:14:49;;;;;;;27.50;17.43;;;19.70;92.30;;;;;;5095458;28;20207;-72
2023/07/02 06:17:15;;;;;;;29.17;18.70;;;19.90;93.30;;;;;;5109511;28;20321;-72
2023/07/02 06:19:41;;;;;;;30.67;20.37;;;20.40;90.60;;;;;;5116451;28;20211;-72
2023/07/02 06:22:06;;;;;;;26.63;17.70;;;21.00;82.90;;;;;;5116397;28;20401;-72
2023/07/02 06:24:32;;;;;;;30.47;19.60;;;21.40;79.40;;;;;;5099228;28;20188;-72
2023/07/02 06:26:58;;;;;;;25.50;19.80;;;22.10;73.20;;;;;;5078549;28;20191;-73
2023/07/02 06:29:23;;;;;;;33.63;20.53;;;22.10;68.70;;;;;;5110356;28;20207;-72
2023/07/02 06:31:49;;;;;;;31.30;20.60;;;22.20;67.60;;;;;;5076890;28;20276;-76
2023/07/02 06:34:15;;;;;;;26.10;18.33;;;22.00;64.80;;;;;;5083194;28;20202;-72
2023/07/02 06:36:41;;;;;;;33.50;19.67;;;21.30;67.40;;;;;;5108142;28;20414;-72
2023/07/02 06:39:08;;;;;;;34.30;20.90;;;20.90;68.90;;;;;;5095885;28;20254;-72
2023/07/02 06:41:35;;;;;;;22.87;17.60;;;20.70;71.40;;;;;;5110050;28;20192;-73
2023/07/02 06:44:00;;;;;;;25.47;17.40;;;20.60;72.10;;;;;;5102420;28;20602;-73
2023/07/02 06:46:26;;;;;;;29.07;18.90;;;20.60;72.30;;;;;;5094047;28;20502;-72
2023/07/02 06:48:51;;;;;;;31.03;19.50;;;20.40;72.40;;;;;;5089630;28;20185;-74
2023/07/02 06:51:18;;;;;;;23.77;15.93;;;20.20;75.50;;;;;;5104299;28;20183;-71
2023/07/02 06:53:45;;;;;;;29.13;20.00;;;20.40;76.30;;;;;;5105366;28;20215;-72
2023/07/02 06:56:11;;;;;;;34.10;19.77;;;20.40;73.70;;;;;;5097444;28;20414;-72
2023/07/02 06:58:36;;;;;;;31.60;20.07;;;20.30;75.50;;;;;;5116013;28;20460;-73
2023/07/02 07:01:02;;;;;;;31.03;19.20;;;20.40;74.00;;;;;;5087239;28;20531;-72
2023/07/02 07:03:28;;;;;;;28.60;16.43;;;20.40;74.10;;;;;;5089730;28;20209;-72
2023/07/02 07:05:53;;;;;;;25.40;17.03;;;20.40;75.30;;;;;;5096485;28;20200;-72
2023/07/02 07:08:19;;;;;;;29.83;19.50;;;20.70;74.60;;;;;;5111357;28;20180;-73
2023/07/02 07:10:45;;;;;;;32.13;19.03;;;20.50;74.00;;;;;;5115801;28;20196;-75
2023/07/02 07:13:13;;;;;;;28.10;18.40;;;20.50;73.90;;;;;;5112776;28;20475;-72
2023/07/02 07:15:39;;;;;;;28.20;18.60;;;20.50;72.90;;;;;;5104803;28;20288;-73
2023/07/02 07:18:04;;;;;;;32.77;19.37;;;20.70;73.70;;;;;;5110281;28;20510;-72
2023/07/02 07:20:31;;;;;;;28.00;18.77;;;20.70;73.80;;;;;;5095747;28;20196;-73
2023/07/02 07:22:57;;;;;;;32.40;19.27;;;20.70;73.10;;;;;;5099666;28;20179;-72
2023/07/02 07:25:22;;;;;;;32.10;18.70;;;20.70;71.10;;;;;;5088967;28;20429;-73
2023/07/02 07:27:48;;;;;;;27.93;16.23;;;20.80;71.60;;;;;;5096275;28;20440;-72
2023/07/02 07:30:14;;;;;;;31.47;18.90;;;20.90;68.70;;;;;;5089187;28;20526;-72
2023/07/02 07:32:41;;;;;;;23.53;16.30;;;20.90;67.80;;;;;;5097801;28;20200;-72
2023/07/02 07:35:07;;;;;;;25.73;16.90;;;21.10;67.80;;;;;;5100104;28;20282;-73
2023/07/02 07:37:32;;;;;;;33.20;19.13;;;21.20;66.20;;;;;;5101463;28;20426;-73
2023/07/02 07:39:58;;;;;;;28.13;18.27;;;21.20;62.50;;;;;;5130341;28;20510;-74
2023/07/02 07:42:24;;;;;;;30.40;16.80;;;21.20;63.20;;;;;;5122801;28;20227;-74
2023/07/02 07:44:49;;;;;;;30.90;17.70;;;21.30;62.40;;;;;;5111443;28;20287;-74
2023/07/02 07:47:15;;;;;;;26.00;16.70;;;21.40;60.40;;;;;;5112526;28;20412;-72
2023/07/02 07:49:40;;;;;;;24.43;16.40;;;21.50;59.40;;;;;;5100834;28;20239;-73
2023/07/02 07:52:06;;;;;;;35.20;17.30;;;21.70;58.20;;;;;;5113935;28;20202;-72
2023/07/02 07:54:35;;;;;;;27.17;15.93;;;21.70;57.80;;;;;;5132814;28;20191;-72
2023/07/02 07:57:01;;;;;;;28.20;16.70;;;21.80;57.50;;;;;;5114160;28;20713;-73
2023/07/02 07:59:26;;;;;;;26.93;17.50;;;21.80;57.60;;;;;;5099151;28;20465;-74
2023/07/02 08:01:53;;;;;;;21.63;16.03;;;21.70;57.00;;;;;;5101602;28;20499;-74
2023/07/02 08:04:18;;;;;;;29.00;17.20;;;21.80;56.90;;;;;;5125360;28;20226;-73
2023/07/02 08:06:44;;;;;;;29.77;16.20;;;22.00;56.30;;;;;;5109012;28;20425;-75
2023/07/02 08:09:10;;;;;;;25.20;15.37;;;22.20;54.10;;;;;;5072996;28;20213;-73
2023/07/02 08:11:36;;;;;;;27.10;15.70;;;21.90;54.50;;;;;;5070928;28;20193;-73
2023/07/02 08:14:01;;;;;;;31.70;16.53;;;21.90;54.20;;;;;;5078768;28;20510;-74
2023/07/02 08:16:27;;;;;;;22.33;15.57;;;21.90;54.50;;;;;;5097011;28;20203;-74
2023/07/02 08:18:52;;;;;;;22.97;15.70;;;22.00;54.70;;;;;;5109841;28;20242;-72
2023/07/02 08:21:18;;;;;;;22.83;15.70;;;22.10;55.30;;;;;;5114804;28;20168;-75
2023/07/02 08:23:44;;;;;;;27.63;14.80;;;22.20;54.40;;;;;;5099987;28;20179;-76
2023/07/02 08:26:11;;;;;;;27.10;16.00;;;22.20;53.80;;;;;;5104553;28;20187;-75
2023/07/02 08:28:38;;;;;;;23.83;16.13;;;22.10;53.60;;;;;;5126846;28;20405;-73
2023/07/02 08:31:04;;;;;;;21.50;15.13;;;21.90;54.10;;;;;;5097648;28;20454;-76
2023/07/02 08:33:29;;;;;;;27.13;15.70;;;21.80;54.80;;;;;;5097536;28;20410;-73
2023/07/02 08:35:55;;;;;;;24.33;15.10;;;21.60;55.60;;;;;;5110286;28;20534;-74
2023/07/02 08:38:21;;;;;;;24.67;14.50;;;21.70;55.50;;;;;;5089486;28;20192;-72
2023/07/02 08:40:49;;;;;;;25.60;13.67;;;21.70;55.20;;;;;;5093891;28;20449;-74
2023/07/02 08:43:15;;;;;;;23.50;14.73;;;21.90;55.00;;;;;;5107959;28;20570;-77
2023/07/02 08:45:44;;;;;;;23.80;14.17;;;21.90;53.60;;;;;;5085337;28;20453;-75
2023/07/02 08:48:12;;;;;;;16.20;11.10;;;22.10;53.80;;;;;;5108149;28;20232;-74
2023/07/02 08:50:37;;;;;;;22.00;13.10;;;22.30;53.40;;;;;;5088922;28;20458;-76
2023/07/02 08:53:03;;;;;;;22.83;14.67;;;22.50;52.30;;;;;;5108555;28;20696;-74
2023/07/02 08:55:29;;;;;;;21.60;13.10;;;22.50;51.80;;;;;;5111554;28;20172;-77
2023/07/02 08:58:00;;;;;;;21.23;13.87;;;22.90;52.30;;;;;;5076480;28;20173;-76
2023/07/02 09:00:26;;;;;;;21.33;13.23;;;23.20;51.70;;;;;;5114658;28;20531;-78
2023/07/02 09:02:52;;;;;;;25.17;15.27;;;23.10;50.00;;;;;;5072911;28;20412;-74
2023/07/02 09:05:18;;;;;;;31.53;14.13;;;22.70;50.30;;;;;;5101399;28;20717;-76
2023/07/02 09:07:48;;;;;;;23.97;14.60;;;22.50;50.90;;;;;;5108301;28;20195;-73
2023/07/02 09:10:27;;;;;;;27.73;14.00;;;22.20;52.00;;;;;;5126960;28;20226;-76
2023/07/02 09:13:03;;;;;;;28.17;15.40;;;22.20;52.20;;;;;;5120351;28;20432;-77
2023/07/02 09:15:36;;;;;;;26.97;14.87;;;22.40;52.00;;;;;;5083191;28;20469;-76
2023/07/02 09:18:01;;;;;;;25.50;14.90;;;22.60;51.50;;;;;;5087054;28;20419;-74
2023/07/02 09:20:33;;;;;;;22.93;15.50;;;22.60;50.80;;;;;;5101574;28;20461;-75
2023/07/02 09:22:58;;;;;;;23.60;13.37;;;22.30;52.30;;;;;;5071529;28;20189;-74
2023/07/02 09:25:38;;;;;;;20.73;13.40;;;22.20;52.30;;;;;;5098539;28;20418;-75
2023/07/02 09:28:21;;;;;;;19.80;14.00;;;22.30;52.40;;;;;;5128853;28;20196;-76
2023/07/02 09:30:51;;;;;;;28.67;15.83;;;22.40;52.70;;;;;;5106601;28;20458;-76
2023/07/02 09:33:17;;;;;;;25.50;15.80;;;22.60;52.40;;;;;;5078445;28;20430;-76
2023/07/02 09:35:43;;;;;;;27.03;15.67;;;22.70;52.40;;;;;;5126176;28;20828;-75
2023/07/02 09:38:10;;;;;;;27.13;16.20;;;22.70;52.70;;;;;;5114008;28;20407;-74
2023/07/02 09:40:44;;;;;;;27.70;16.63;;;22.60;52.40;;;;;;5116190;28;20499;-74
2023/07/02 09:43:11;;;;;;;29.77;16.27;;;22.70;52.50;;;;;;5106513;28;20439;-74
2023/07/02 09:45:38;;;;;;;27.47;16.27;;;22.70;52.10;;;;;;5116438;28;20420;-75
2023/07/02 09:48:05;;;;;;;26.97;16.40;;;22.60;52.20;;;;;;5104711;28;20401;-74
2023/07/02 09:50:32;;;;;;;22.13;14.00;;;22.70;52.60;;;;;;5097741;28;20437;-76
2023/07/02 09:52:58;;;;;;;21.67;13.93;;;22.90;52.30;;;;;;5125540;28;20436;-75
2023/07/02 09:55:24;;;;;;;22.27;14.40;;;23.30;52.00;;;;;;5105660;28;20422;-74
2023/07/02 09:57:49;;;;;;;25.87;16.40;;;23.50;51.80;;;;;;5109316;28;20440;-74
2023/07/02 10:00:15;;;;;;;24.00;16.23;;;23.90;51.00;;;;;;5097535;28;20237;-74
2023/07/02 10:02:41;;;;;;;23.63;16.30;;;24.00;50.80;;;;;;5102767;28;20195;-74
2023/07/02 10:05:08;;;;;;;26.30;15.60;;;24.10;50.60;;;;;;5108891;28;20442;-78
2023/07/02 10:07:34;;;;;;;28.40;16.47;;;24.20;50.40;;;;;;5116002;28;20258;-73
2023/07/02 10:10:00;;;;;;;30.23;19.03;;;24.30;50.10;;;;;;5128813;28;20462;-75
2023/07/02 10:12:29;;;;;;;25.07;16.70;;;24.50;49.30;;;;;;5106436;28;20381;-74
2023/07/02 10:14:56;;;;;;;22.63;15.33;;;24.60;48.80;;;;;;5105023;28;20439;-75
2023/07/02 10:17:28;;;;;;;22.50;15.30;;;24.70;49.00;;;;;;5089394;28;20403;-76
2023/07/02 10:19:55;;;;;;;22.93;16.20;;;24.80;48.60;;;;;;5125091;28;20748;-74
2023/07/02 10:22:21;;;;;;;24.00;16.70;;;24.70;47.10;;;;;;5112016;28;20409;-75
2023/07/02 10:24:59;;;;;;;28.70;17.67;;;24.30;47.80;;;;;;5111060;28;20403;-74
2023/07/02 10:27:42;;;;;;;24.10;16.20;;;24.20;47.70;;;;;;5105607;28;20464;-75
2023/07/02 10:30:10;;;;;;;25.30;15.57;;;24.00;48.30;;;;;;5106039;28;20463;-75
2023/07/02 10:32:37;;;;;;;24.93;14.90;;;23.60;47.50;;;;;;5085574;28;20421;-74
2023/07/02 10:35:13;;;;;;;21.57;14.60;;;23.20;48.30;;;;;;5099070;28;20451;-77
2023/07/02 10:37:39;;;;;;;35.97;16.43;;;23.20;47.80;;;;;;5106914;28;20416;-74
2023/07/02 10:40:09;;;;;;;21.93;15.03;;;23.30;47.70;;;;;;5106175;28;20469;-75
2023/07/02 10:42:53;;;;;;;22.67;13.83;;;23.40;48.00;;;;;;5108439;28;20168;-74
2023/07/02 10:45:20;;;;;;;29.47;16.73;;;23.50;47.80;;;;;;5103967;28;20429;-76
2023/07/02 10:47:46;;;;;;;24.57;15.97;;;23.40;48.20;;;;;;5125451;28;20903;-74
2023/07/02 10:50:20;;;;;;;25.73;15.10;;;23.10;48.80;;;;;;5108934;28;20472;-75
2023/07/02 10:52:46;;;;;;;24.17;15.80;;;22.90;49.40;;;;;;5131939;28;20409;-75
2023/07/02 10:55:24;;;;;;;25.43;15.50;;;22.70;50.00;;;;;;5115617;28;20405;-75
2023/07/02 10:57:51;;;;;;;22.07;13.93;;;22.60;51.10;;;;;;5131960;28;20432;-77
2023/07/02 11:00:17;;;;;;;19.87;14.83;;;22.60;51.50;;;;;;5081262;28;20467;-73
2023/07/02 11:02:43;;;;;;;26.17;14.50;;;22.80;51.20;;;;;;5057362;28;20445;-74
2023/07/02 11:05:12;;;;;;;23.60;14.90;;;22.80;50.90;;;;;;5113466;28;20529;-74
2023/07/02 11:07:42;;;;;;;19.37;13.47;;;22.90;50.60;;;;;;5126389;28;20178;-74
2023/07/02 11:10:09;;;;;;;25.60;15.40;;;23.00;50.20;;;;;;5093793;28;20515;-73
2023/07/02 11:12:35;;;;;;;29.83;15.20;;;23.20;49.30;;;;;;5102381;28;20409;-73
2023/07/02 11:15:14;;;;;;;25.93;15.77;;;23.30;49.20;;;;;;5106648;28;20413;-74
2023/07/02 11:17:41;;;;;;;22.33;13.87;;;23.30;48.40;;;;;;5122116;28;20261;-73
2023/07/02 11:20:09;;;;;;;27.47;16.07;;;23.30;48.50;;;;;;5124182;28;20488;-74
2023/07/02 11:22:36;;;;;;;26.00;15.60;;;23.10;47.80;;;;;;5124898;28;20448;-75
2023/07/02 11:25:20;;;;;;;22.60;14.57;;;23.00;48.60;;;;;;5123798;28;20479;-77
2023/07/02 11:27:45;;;;;;;25.90;15.63;;;23.20;47.90;;;;;;5124167;28;20789;-75
2023/07/02 11:30:12;;;;;;;22.53;15.60;;;23.40;47.40;;;;;;5095975;28;20438;-75
2023/07/02 11:32:51;;;;;;;26.60;15.40;;;23.40;48.00;;;;;;5068864;28;20184;-74
2023/07/02 11:35:18;;;;;;;23.60;15.77;;;23.20;48.30;;;;;;5086394;28;20468;-72
2023/07/02 11:37:44;;;;;;;23.87;15.30;;;22.80;49.20;;;;;;5085295;28;20739;-73
2023/07/02 11:40:10;;;;;;;26.37;15.93;;;22.80;49.20;;;;;;5103310;28;20531;-78
2023/07/02 11:42:36;;;;;;;26.60;14.57;;;23.00;49.30;;;;;;5105075;28;21050;-75
2023/07/02 11:45:02;;;;;;;21.37;16.47;;;23.00;49.30;;;;;;5083071;28;20423;-75
2023/07/02 11:47:27;;;;;;;25.80;15.43;;;23.10;49.50;;;;;;5096936;28;20240;-74
2023/07/02 11:49:54;;;;;;;20.33;14.70;;;23.10;49.80;;;;;;5089992;28;20211;-77
2023/07/02 11:52:21;;;;;;;25.97;15.70;;;23.10;49.90;;;;;;5106393;28;20187;-74
2023/07/02 11:54:47;;;;;;;22.13;13.20;;;22.90;48.60;;;;;;5118042;28;20420;-74
2023/07/02 11:57:12;;;;;;;19.77;13.30;;;22.90;48.40;;;;;;5124015;28;20870;-76
2023/07/02 11:59:38;;;;;;;24.77;13.77;;;22.80;48.20;;;;;;5117388;28;20478;-75
2023/07/02 12:02:05;;;;;;;23.90;14.10;;;22.70;48.00;;;;;;5077374;28;20193;-79
2023/07/02 12:04:31;;;;;;;18.67;13.27;;;22.60;47.80;;;;;;5073294;28;20300;-77
2023/07/02 12:06:56;;;;;;;19.83;13.10;;;22.70;47.70;;;;;;5085839;28;20408;-77
2023/07/02 12:09:22;;;;;;;17.50;12.43;;;22.80;46.80;;;;;;5066566;28;20256;-72
2023/07/02 12:11:48;;;;;;;19.23;13.70;;;22.90;46.50;;;;;;5077635;28;20248;-73
2023/07/02 12:14:13;;;;;;;19.03;13.07;;;22.90;46.90;;;;;;5085906;28;20165;-76
2023/07/02 12:16:39;;;;;;;21.07;12.63;;;23.10;46.60;;;;;;5084423;28;20218;-76
2023/07/02 12:19:04;;;;;;;19.53;11.90;;;23.00;45.10;;;;;;5091317;28;20221;-74
2023/07/02 12:21:30;;;;;;;17.53;11.40;;;22.90;44.70;;;;;;5132350;28;20156;-73
2023/07/02 12:23:56;;;;;;;12.60;9.17;;;23.10;43.80;;;;;;5116452;28;20187;-75
2023/07/02 12:26:21;;;;;;;15.23;10.77;;;23.30;42.10;;;;;;5107562;28;20172;-75
2023/07/02 12:28:48;;;;;;;14.23;9.60;;;23.10;41.70;;;;;;5121028;28;20180;-77